PILOTS ONLINE: 473    ATC ONLINE: 116

Location

IATA SNA
City Santa Ana
Country  United States
Latitude 33° 40' 32" N
Longitude 117° 52' 4" W
Elevation 56 ft
Type Large Airport

Weather

METAR
2014/07/10 17:53
KSNA 101753Z 00000KT 10SM FEW024 SCT045 25/16 A2995 RMK AO2 SLP142 T02500156 10256 20217 58006
TAF
2014/07/10 18:30
TAF KSNA 101725Z 1018/1118 VRB04KT P6SM SCT020 
     FM101900 22009KT P6SM SKC 
     FM110200 VRB04KT P6SM FEW020 
     FM110600 VRB03KT P6SM OVC017 
     FM111500 VRB04KT P6SM BKN021 
     FM111700 VRB05KT P6SM SCT024

Runways

01L/19R 5700 ft / 150 ft
01R/19L 2887 ft / 75 ft

Outbound flights

ACL95  KORD - Chicago, United States
Brad Douglas

Inbound flights


Spotted incorrect airport information? Please login with your VATSIM ID.